createdAt,value
2023-01-21T00:00:34.333Z,-2.10
2023-01-21T00:01:35.780Z,-2.10
2023-01-21T00:02:37.506Z,-2.10
2023-01-21T00:03:39.227Z,-2.20
2023-01-21T00:04:40.966Z,-2.20
2023-01-21T00:05:42.468Z,-2.30
2023-01-21T00:06:43.891Z,-2.20
2023-01-21T00:07:45.528Z,-2.20
2023-01-21T00:08:46.914Z,-2.20
2023-01-21T00:09:48.406Z,-2.10
2023-01-21T00:10:49.863Z,-2.00
2023-01-21T00:11:51.260Z,-2.10
2023-01-21T00:12:52.783Z,-2.10
2023-01-21T00:13:54.544Z,-2.10
2023-01-21T00:14:56.305Z,-2.10
2023-01-21T00:15:57.752Z,-2.10
2023-01-21T00:16:59.345Z,-2.20
2023-01-21T00:18:00.894Z,-2.30
2023-01-21T00:19:02.341Z,-2.30
2023-01-21T00:20:04.952Z,-2.30
2023-01-21T00:21:06.649Z,-2.20
2023-01-21T00:22:08.086Z,-2.30
2023-01-21T00:23:10.903Z,-2.20
2023-01-21T00:24:12.464Z,-2.30
2023-01-21T00:25:13.975Z,-2.40
2023-01-21T00:26:15.736Z,-2.30
2023-01-21T00:27:17.267Z,-2.30
2023-01-21T00:28:18.965Z,-2.30
2023-01-21T00:29:21.745Z,-2.30
2023-01-21T00:30:23.253Z,-2.30
2023-01-21T00:31:25.210Z,-2.40
2023-01-21T00:32:27.288Z,-2.50
2023-01-21T00:33:29.238Z,-2.40
2023-01-21T00:34:30.742Z,-2.50
2023-01-21T00:35:32.138Z,-2.50
2023-01-21T00:36:33.565Z,-2.40
2023-01-21T00:37:35.245Z,-2.40
2023-01-21T00:38:37.113Z,-2.40
2023-01-21T00:39:42.724Z,-2.40
2023-01-21T00:40:44.602Z,-2.40
2023-01-21T00:41:46.295Z,-2.50
2023-01-21T00:42:47.699Z,-2.50
2023-01-21T00:43:49.095Z,-2.50
2023-01-21T00:44:50.513Z,-2.60
2023-01-21T00:45:52.047Z,-2.60
2023-01-21T00:46:53.501Z,-2.60
2023-01-21T00:47:54.893Z,-2.70
2023-01-21T00:48:56.360Z,-2.70
2023-01-21T00:49:57.815Z,-2.60
2023-01-21T00:51:00.939Z,-2.60
2023-01-21T00:52:02.784Z,-2.60
2023-01-21T00:53:04.170Z,-2.60
2023-01-21T00:54:05.767Z,-2.60
2023-01-21T00:55:07.376Z,-2.60
2023-01-21T00:56:11.349Z,-2.60
2023-01-21T00:57:13.866Z,-2.60
2023-01-21T00:58:15.465Z,-2.70
2023-01-21T00:59:17.256Z,-2.70
2023-01-21T01:00:19.502Z,-2.80
2023-01-21T01:01:22.455Z,-2.80
2023-01-21T01:02:24.334Z,-2.80
2023-01-21T01:03:25.758Z,-2.80
2023-01-21T01:04:27.167Z,-2.80
2023-01-21T01:05:28.618Z,-2.80
2023-01-21T01:06:30.070Z,-2.90
2023-01-21T01:07:31.723Z,-2.90
2023-01-21T01:08:33.386Z,-3.00
2023-01-21T01:09:35.106Z,-2.90
2023-01-21T01:10:37.631Z,-2.90
2023-01-21T01:11:39.434Z,-2.90
2023-01-21T01:12:40.845Z,-2.90
2023-01-21T01:13:42.713Z,-2.90
2023-01-21T01:14:44.224Z,-2.90
2023-01-21T01:15:47.271Z,-3.00
2023-01-21T01:16:50.347Z,-2.90
2023-01-21T01:17:52.002Z,-3.00
2023-01-21T01:18:53.711Z,-3.00
2023-01-21T01:19:55.881Z,-2.90
2023-01-21T01:20:57.446Z,-2.90
2023-01-21T01:21:58.938Z,-3.00
2023-01-21T01:23:00.334Z,-3.00
2023-01-21T01:24:03.191Z,-2.90
2023-01-21T01:25:05.233Z,-3.00
2023-01-21T01:26:09.722Z,-2.90
2023-01-21T01:27:11.351Z,-2.80
2023-01-21T01:28:12.717Z,-2.80
2023-01-21T01:29:14.095Z,-2.90
2023-01-21T01:30:15.812Z,-2.90
2023-01-21T01:31:18.576Z,-2.90
2023-01-21T01:32:20.215Z,-2.90
2023-01-21T01:33:21.920Z,-3.00
2023-01-21T01:34:23.542Z,-3.10
2023-01-21T01:35:24.933Z,-3.10
2023-01-21T01:36:26.369Z,-3.10
2023-01-21T01:37:27.798Z,-3.10
2023-01-21T01:38:29.684Z,-3.10
2023-01-21T01:39:31.756Z,-3.10
2023-01-21T01:40:34.031Z,-3.10
2023-01-21T01:41:36.024Z,-3.10
2023-01-21T01:42:37.465Z,-3.10
2023-01-21T01:43:55.007Z,-3.10
2023-01-21T01:45:02.506Z,-3.10
2023-01-21T01:46:03.979Z,-3.10
2023-01-21T01:47:05.513Z,-3.10
2023-01-21T01:48:07.637Z,-3.00
2023-01-21T01:49:12.817Z,-3.00
2023-01-21T01:50:17.912Z,-3.10
2023-01-21T01:51:26.345Z,-3.10
2023-01-21T01:52:29.366Z,-3.10
2023-01-21T01:53:32.190Z,-3.10
2023-01-21T01:54:37.153Z,-3.20
2023-01-21T01:55:39.833Z,-3.20
2023-01-21T01:56:46.984Z,-3.20
2023-01-21T01:57:53.076Z,-3.20
2023-01-21T01:58:54.785Z,-3.20
2023-01-21T01:59:57.617Z,-3.20
2023-01-21T02:01:00.395Z,-3.20
2023-01-21T02:02:07.465Z,-3.20
2023-01-21T02:03:27.784Z,-3.20
2023-01-21T02:04:35.340Z,-3.30
2023-01-21T02:05:38.176Z,-3.20
2023-01-21T02:06:40.860Z,-3.20
2023-01-21T02:07:44.735Z,-3.30
2023-01-21T02:08:47.241Z,-3.30
2023-01-21T02:09:49.037Z,-3.30
2023-01-21T02:10:51.466Z,-3.20
2023-01-21T02:11:52.865Z,-3.30
2023-01-21T02:12:54.666Z,-3.30
2023-01-21T02:13:59.221Z,-3.30
2023-01-21T02:15:00.747Z,-3.30
2023-01-21T02:16:08.208Z,-3.30
2023-01-21T02:17:24.643Z,-3.40
2023-01-21T02:18:40.095Z,-3.40
2023-01-21T02:20:06.205Z,-3.40
2023-01-21T02:21:14.006Z,-3.40
2023-01-21T02:22:36.979Z,-3.40
2023-01-21T02:24:00.208Z,-3.30
2023-01-21T02:25:20.199Z,-3.40
2023-01-21T02:26:37.123Z,-3.40
2023-01-21T02:27:47.667Z,-3.40
2023-01-21T02:29:09.286Z,-3.40
2023-01-21T02:30:28.997Z,-3.40
2023-01-21T02:32:02.541Z,-3.40
2023-01-21T02:33:22.860Z,-3.50
2023-01-21T02:34:42.047Z,-3.50
2023-01-21T02:36:08.431Z,-3.40
2023-01-21T02:37:12.477Z,-3.40
2023-01-21T02:38:32.342Z,-3.40
2023-01-21T02:40:04.618Z,-3.50
2023-01-21T02:41:11.535Z,-3.50
2023-01-21T02:42:17.796Z,-3.50
2023-01-21T02:43:27.687Z,-3.50
2023-01-21T02:44:38.431Z,-3.50
2023-01-21T02:45:53.340Z,-3.50
2023-01-21T02:47:19.535Z,-3.50
2023-01-21T02:48:29.204Z,-3.50
2023-01-21T02:49:40.055Z,-3.50
2023-01-21T02:50:44.614Z,-3.50
2023-01-21T02:51:48.069Z,-3.50
2023-01-21T02:52:57.151Z,-3.50
2023-01-21T02:53:58.914Z,-3.50
2023-01-21T02:55:01.952Z,-3.50
2023-01-21T02:56:08.417Z,-3.60
2023-01-21T02:57:14.162Z,-3.60
2023-01-21T02:58:18.556Z,-3.60
2023-01-21T02:59:20.320Z,-3.60
2023-01-21T03:00:27.850Z,-3.50
2023-01-21T03:02:00.205Z,-3.50
2023-01-21T03:03:14.404Z,-3.50
2023-01-21T03:04:44.682Z,-3.60
2023-01-21T03:05:56.815Z,-3.60
2023-01-21T03:07:33.610Z,-3.50
2023-01-21T03:08:42.462Z,-3.40
2023-01-21T03:09:44.149Z,-3.40
2023-01-21T03:10:51.221Z,-3.50
2023-01-21T03:12:10.542Z,-3.50
2023-01-21T03:13:51.472Z,-3.40
2023-01-21T03:15:26.883Z,-3.40
2023-01-21T03:16:57.375Z,-3.60
2023-01-21T03:18:03.837Z,-3.60
2023-01-21T03:19:06.747Z,-3.60
2023-01-21T03:20:29.081Z,-3.50
2023-01-21T03:21:32.149Z,-3.60
2023-01-21T03:22:36.174Z,-3.70
2023-01-21T03:23:41.950Z,-3.70
2023-01-21T03:24:46.965Z,-3.70
2023-01-21T03:25:50.430Z,-3.70
2023-01-21T03:26:55.453Z,-3.70
2023-01-21T03:27:59.418Z,-3.60
2023-01-21T03:29:06.166Z,-3.50
2023-01-21T03:30:14.812Z,-3.50
2023-01-21T03:31:23.685Z,-3.50
2023-01-21T03:32:28.857Z,-3.50
2023-01-21T03:33:34.768Z,-3.50
2023-01-21T03:34:41.367Z,-3.40
2023-01-21T03:35:47.860Z,-3.50
2023-01-21T03:36:57.855Z,-3.50
2023-01-21T03:38:09.037Z,-3.50
2023-01-21T03:39:38.401Z,-3.60
2023-01-21T03:40:44.365Z,-3.60
2023-01-21T03:41:45.939Z,-3.50
2023-01-21T03:42:50.581Z,-3.60
2023-01-21T03:43:52.620Z,-3.50
2023-01-21T03:44:54.891Z,-3.60
2023-01-21T03:46:03.267Z,-3.60
2023-01-21T03:47:28.635Z,-3.60
2023-01-21T03:48:50.264Z,-3.50
2023-01-21T03:49:57.833Z,-3.50
2023-01-21T03:51:05.451Z,-3.50
2023-01-21T03:52:08.764Z,-3.50
2023-01-21T03:53:10.295Z,-3.50
2023-01-21T03:54:11.773Z,-3.60
2023-01-21T03:55:14.800Z,-3.70
2023-01-21T03:56:16.221Z,-3.70
2023-01-21T03:57:17.585Z,-3.70
2023-01-21T03:58:19.220Z,-3.70
2023-01-21T03:59:20.638Z,-3.60
2023-01-21T04:00:22.230Z,-3.60
2023-01-21T04:01:24.063Z,-3.60
2023-01-21T04:02:26.025Z,-3.60
2023-01-21T04:03:27.514Z,-3.70
2023-01-21T04:04:29.356Z,-3.70
2023-01-21T04:05:30.740Z,-3.70
2023-01-21T04:06:33.139Z,-3.70
2023-01-21T04:07:34.801Z,-3.60
2023-01-21T04:08:36.267Z,-3.60
2023-01-21T04:09:37.804Z,-3.70
2023-01-21T04:10:39.152Z,-3.70
2023-01-21T04:11:40.873Z,-3.70
2023-01-21T04:12:42.592Z,-3.70
2023-01-21T04:13:44.856Z,-3.70
2023-01-21T04:14:46.498Z,-3.70
2023-01-21T04:15:47.922Z,-3.70
2023-01-21T04:16:49.531Z,-3.70
2023-01-21T04:17:51.385Z,-3.70
2023-01-21T04:18:53.996Z,-3.70
2023-01-21T04:19:55.622Z,-3.60
2023-01-21T04:20:57.317Z,-3.60
2023-01-21T04:21:59.047Z,-3.60
2023-01-21T04:23:00.475Z,-3.60
2023-01-21T04:24:02.027Z,-3.60
2023-01-21T04:25:05.467Z,-3.60
2023-01-21T04:26:07.725Z,-3.60
2023-01-21T04:27:09.132Z,-3.60
2023-01-21T04:28:10.928Z,-3.60
2023-01-21T04:29:12.661Z,-3.60
2023-01-21T04:30:14.287Z,-3.50
2023-01-21T04:31:15.932Z,-3.60
2023-01-21T04:32:17.309Z,-3.60
2023-01-21T04:33:18.934Z,-3.60
2023-01-21T04:34:20.866Z,-3.60
2023-01-21T04:35:22.287Z,-3.70
2023-01-21T04:36:24.595Z,-3.70
2023-01-21T04:37:25.936Z,-3.70
2023-01-21T04:38:28.008Z,-3.60
2023-01-21T04:39:29.483Z,-3.60
2023-01-21T04:40:31.000Z,-3.60
2023-01-21T04:41:32.350Z,-3.70
2023-01-21T04:42:33.797Z,-3.70
2023-01-21T04:43:35.251Z,-3.70
2023-01-21T04:44:36.835Z,-3.70
2023-01-21T04:45:38.357Z,-3.70
2023-01-21T04:46:39.788Z,-3.70
2023-01-21T04:47:43.143Z,-3.80
2023-01-21T04:48:44.611Z,-3.70
2023-01-21T04:49:46.296Z,-3.60
2023-01-21T04:50:47.990Z,-3.70
2023-01-21T04:51:49.444Z,-3.70
2023-01-21T04:52:51.154Z,-3.70
2023-01-21T04:53:52.563Z,-3.70
2023-01-21T04:54:54.034Z,-3.70
2023-01-21T04:55:55.836Z,-3.70
2023-01-21T04:56:57.343Z,-3.80
2023-01-21T04:57:58.854Z,-3.70
2023-01-21T04:59:00.351Z,-3.70
2023-01-21T05:00:02.218Z,-3.60
2023-01-21T05:01:03.892Z,-3.60
2023-01-21T05:02:05.484Z,-3.70
2023-01-21T05:03:07.165Z,-3.70
2023-01-21T05:04:08.765Z,-3.60
2023-01-21T05:05:10.622Z,-3.70
2023-01-21T05:06:12.091Z,-3.80
2023-01-21T05:07:14.757Z,-3.70
2023-01-21T05:08:16.157Z,-3.70
2023-01-21T05:09:17.868Z,-3.70
2023-01-21T05:10:19.509Z,-3.70
2023-01-21T05:11:21.399Z,-3.70
2023-01-21T05:12:22.896Z,-3.70
2023-01-21T05:13:24.520Z,-3.50
2023-01-21T05:14:26.161Z,-3.60
2023-01-21T05:15:27.607Z,-3.60
2023-01-21T05:16:29.276Z,-3.50
2023-01-21T05:17:30.963Z,-3.60
2023-01-21T05:18:32.387Z,-3.60
2023-01-21T05:19:33.991Z,-3.60
2023-01-21T05:20:35.454Z,-3.60
2023-01-21T05:21:36.906Z,-3.50
2023-01-21T05:22:38.882Z,-3.60
2023-01-21T05:23:40.393Z,-3.60
2023-01-21T05:24:42.188Z,-3.60
2023-01-21T05:25:43.713Z,-3.70
2023-01-21T05:26:45.400Z,-3.70
2023-01-21T05:27:54.310Z,-3.80
2023-01-21T05:28:55.878Z,-3.80
2023-01-21T05:29:57.303Z,-3.80
2023-01-21T05:31:03.182Z,-3.80
2023-01-21T05:32:05.299Z,-3.70
2023-01-21T05:33:06.678Z,-3.70
2023-01-21T05:34:08.307Z,-3.70
2023-01-21T05:35:12.079Z,-3.70
2023-01-21T05:36:13.502Z,-3.70
2023-01-21T05:37:14.961Z,-3.70
2023-01-21T05:38:16.331Z,-3.60
2023-01-21T05:39:17.747Z,-3.70
2023-01-21T05:40:19.554Z,-3.70
2023-01-21T05:41:21.438Z,-3.70
2023-01-21T05:42:22.914Z,-3.60
2023-01-21T05:43:24.671Z,-3.70
2023-01-21T05:44:26.185Z,-3.70
2023-01-21T05:45:27.610Z,-3.80
2023-01-21T05:46:29.059Z,-3.80
2023-01-21T05:47:30.486Z,-3.90
2023-01-21T05:48:31.982Z,-3.90
2023-01-21T05:49:33.604Z,-3.80
2023-01-21T05:50:34.961Z,-3.80
2023-01-21T05:51:36.330Z,-3.80
2023-01-21T05:52:38.131Z,-3.90
2023-01-21T05:53:39.651Z,-3.90
2023-01-21T05:54:52.512Z,-3.90
2023-01-21T05:55:58.842Z,-3.90
2023-01-21T05:57:00.286Z,-4.00
2023-01-21T05:58:01.681Z,-4.00
2023-01-21T05:59:03.373Z,-4.00
2023-01-21T06:00:05.534Z,-4.00
2023-01-21T06:01:07.281Z,-4.00
2023-01-21T06:02:08.801Z,-4.00
2023-01-21T06:03:10.404Z,-4.00
2023-01-21T06:04:11.834Z,-3.90
2023-01-21T06:05:13.592Z,-3.90
2023-01-21T06:06:15.066Z,-3.90
2023-01-21T06:07:16.546Z,-3.90
2023-01-21T06:08:18.562Z,-4.00
2023-01-21T06:09:20.656Z,-4.00
2023-01-21T06:10:22.841Z,-4.00
2023-01-21T06:11:24.260Z,-4.00
2023-01-21T06:12:25.760Z,-4.00
2023-01-21T06:13:27.761Z,-4.10
2023-01-21T06:14:29.182Z,-4.10
2023-01-21T06:15:33.524Z,-4.10
2023-01-21T06:16:35.058Z,-4.10
2023-01-21T06:17:39.949Z,-4.10
2023-01-21T06:18:41.376Z,-4.10
2023-01-21T06:19:42.849Z,-4.10
2023-01-21T06:20:44.289Z,-4.10
2023-01-21T06:21:45.681Z,-4.10
2023-01-21T06:22:47.301Z,-4.20
2023-01-21T06:23:48.670Z,-4.10
2023-01-21T06:24:50.447Z,-4.20
2023-01-21T06:25:51.827Z,-4.20
2023-01-21T06:26:53.418Z,-4.20
2023-01-21T06:27:56.185Z,-4.20
2023-01-21T06:28:57.929Z,-4.20
2023-01-21T06:29:59.693Z,-4.20
2023-01-21T06:31:01.240Z,-4.20
2023-01-21T06:32:02.845Z,-4.20
2023-01-21T06:33:04.650Z,-4.20
2023-01-21T06:34:06.113Z,-4.20
2023-01-21T06:35:08.123Z,-4.10
2023-01-21T06:36:09.814Z,-4.20
2023-01-21T06:37:11.412Z,-4.10
2023-01-21T06:38:13.109Z,-4.10
2023-01-21T06:39:15.241Z,-4.10
2023-01-21T06:40:17.220Z,-4.10
2023-01-21T06:41:19.102Z,-4.10
2023-01-21T06:42:20.683Z,-4.10
2023-01-21T06:43:22.357Z,-4.00
2023-01-21T06:44:23.796Z,-4.00
2023-01-21T06:45:25.440Z,-3.90
2023-01-21T06:46:26.944Z,-3.90
2023-01-21T06:47:28.400Z,-3.90
2023-01-21T06:48:30.234Z,-3.90
2023-01-21T06:49:31.665Z,-3.90
2023-01-21T06:50:33.122Z,-3.90
2023-01-21T06:51:34.772Z,-3.90
2023-01-21T06:52:36.248Z,-3.90
2023-01-21T06:53:37.647Z,-3.90
2023-01-21T06:54:39.286Z,-3.90
2023-01-21T06:55:40.962Z,-3.90
2023-01-21T06:56:43.685Z,-4.00
2023-01-21T06:57:45.161Z,-4.00
2023-01-21T06:58:46.730Z,-4.10
2023-01-21T06:59:48.217Z,-4.10
2023-01-21T07:00:49.662Z,-4.10
2023-01-21T07:01:51.210Z,-4.10
2023-01-21T07:02:59.592Z,-4.10
2023-01-21T07:04:01.693Z,-4.10
2023-01-21T07:05:04.145Z,-4.10
2023-01-21T07:06:05.946Z,-4.00
2023-01-21T07:07:07.936Z,-4.10
2023-01-21T07:08:09.271Z,-4.00
2023-01-21T07:09:11.194Z,-4.10
2023-01-21T07:10:12.687Z,-4.10
2023-01-21T07:11:14.599Z,-4.10
2023-01-21T07:12:16.003Z,-4.10
2023-01-21T07:13:17.613Z,-4.10
2023-01-21T07:14:19.000Z,-4.10
2023-01-21T07:15:20.579Z,-4.00
2023-01-21T07:16:22.165Z,-4.00
2023-01-21T07:17:23.713Z,-4.00
2023-01-21T07:18:25.118Z,-4.00
2023-01-21T07:19:26.568Z,-4.10
2023-01-21T07:20:28.207Z,-4.10
2023-01-21T07:21:29.640Z,-4.10
2023-01-21T07:22:33.033Z,-4.10
2023-01-21T07:23:34.447Z,-4.00
2023-01-21T07:24:36.078Z,-4.10
2023-01-21T07:25:38.291Z,-4.10
2023-01-21T07:26:39.813Z,-4.10
2023-01-21T07:27:41.708Z,-4.10
2023-01-21T07:28:43.572Z,-4.10
2023-01-21T07:29:45.304Z,-4.10
2023-01-21T07:30:46.764Z,-4.10
2023-01-21T07:31:48.400Z,-4.10
2023-01-21T07:32:49.915Z,-4.10
2023-01-21T07:33:51.410Z,-4.10
2023-01-21T07:34:52.838Z,-4.10
2023-01-21T07:35:54.962Z,-4.10
2023-01-21T07:36:56.440Z,-4.10
2023-01-21T07:37:57.871Z,-4.10
2023-01-21T07:38:59.249Z,-4.10
2023-01-21T07:40:00.758Z,-4.10
2023-01-21T07:41:02.453Z,-4.00
2023-01-21T07:42:04.169Z,-4.10
2023-01-21T07:43:05.771Z,-4.00
2023-01-21T07:44:07.284Z,-4.00
2023-01-21T07:45:09.147Z,-4.00
2023-01-21T07:46:10.775Z,-4.00
2023-01-21T07:47:12.224Z,-4.00
2023-01-21T07:48:13.737Z,-4.00
2023-01-21T07:49:17.360Z,-4.00
2023-01-21T07:50:19.196Z,-3.90
2023-01-21T07:51:21.501Z,-3.90
2023-01-21T07:52:23.054Z,-3.90
2023-01-21T07:53:24.825Z,-3.80
2023-01-21T07:54:26.353Z,-3.80
2023-01-21T07:55:28.973Z,-3.80
2023-01-21T07:56:30.368Z,-3.80
2023-01-21T07:57:32.175Z,-3.80
2023-01-21T07:58:33.847Z,-3.80
2023-01-21T07:59:35.736Z,-3.80
2023-01-21T08:00:37.134Z,-3.70
2023-01-21T08:01:38.800Z,-3.60
2023-01-21T08:02:42.056Z,-3.50
2023-01-21T08:03:43.558Z,-3.50
2023-01-21T08:04:45.253Z,-3.50
2023-01-21T08:05:46.800Z,-3.40
2023-01-21T08:06:48.159Z,-3.40
2023-01-21T08:07:50.125Z,-3.40
2023-01-21T08:08:51.573Z,-3.40
2023-01-21T08:09:53.088Z,-3.30
2023-01-21T08:10:55.503Z,-3.30
2023-01-21T08:11:57.703Z,-3.20
2023-01-21T08:13:01.048Z,-3.20
2023-01-21T08:14:02.466Z,-3.10
2023-01-21T08:15:04.235Z,-3.10
2023-01-21T08:16:06.404Z,-3.10
2023-01-21T08:17:08.033Z,-3.10
2023-01-21T08:18:09.668Z,-3.10
2023-01-21T08:19:13.755Z,-3.10
2023-01-21T08:20:15.932Z,-3.00
2023-01-21T08:21:18.301Z,-3.00
2023-01-21T08:22:19.990Z,-3.00
2023-01-21T08:23:21.491Z,-3.00
2023-01-21T08:24:22.890Z,-3.00
2023-01-21T08:25:24.358Z,-3.00
2023-01-21T08:26:25.983Z,-2.90
2023-01-21T08:27:27.551Z,-3.00
2023-01-21T08:28:29.243Z,-3.00
2023-01-21T08:29:30.750Z,-2.80
2023-01-21T08:30:32.149Z,-2.80
2023-01-21T08:31:33.702Z,-2.80
2023-01-21T08:32:35.161Z,-2.90
2023-01-21T08:33:37.656Z,-2.90
2023-01-21T08:34:39.277Z,-2.80
2023-01-21T08:35:41.184Z,-2.90
2023-01-21T08:36:42.670Z,-2.80
2023-01-21T08:37:44.291Z,-2.80
2023-01-21T08:38:48.548Z,-2.80
2023-01-21T08:39:50.269Z,-2.80
2023-01-21T08:40:51.672Z,-2.80
2023-01-21T08:41:53.456Z,-2.70
2023-01-21T08:42:59.383Z,-2.70
2023-01-21T08:44:00.843Z,-2.70
2023-01-21T08:45:02.467Z,-2.60
2023-01-21T08:46:04.261Z,-2.60
2023-01-21T08:47:05.693Z,-2.60
2023-01-21T08:48:08.016Z,-2.50
2023-01-21T08:49:09.357Z,-2.50
2023-01-21T08:50:11.241Z,-2.40
2023-01-21T08:51:12.725Z,-2.30
2023-01-21T08:52:14.614Z,-2.30
2023-01-21T08:53:16.361Z,-2.20
2023-01-21T08:54:17.743Z,-2.10
2023-01-21T08:55:19.824Z,-2.00
2023-01-21T08:56:21.327Z,-2.00
2023-01-21T08:57:23.122Z,-1.90
2023-01-21T08:58:24.550Z,-1.90
2023-01-21T08:59:28.964Z,-1.90
2023-01-21T09:00:30.426Z,-1.90
2023-01-21T09:01:32.044Z,-1.80
2023-01-21T09:02:33.550Z,-1.60
2023-01-21T09:03:35.410Z,-1.70
2023-01-21T09:04:36.869Z,-1.70
2023-01-21T09:05:38.322Z,-1.70
2023-01-21T09:06:39.881Z,-1.50
2023-01-21T09:07:41.381Z,-1.40
2023-01-21T09:08:42.835Z,-1.40
2023-01-21T09:09:44.348Z,-1.40
2023-01-21T09:11:01.053Z,-1.50
2023-01-21T09:12:02.541Z,-1.40
2023-01-21T09:13:05.416Z,-1.10
2023-01-21T09:14:06.857Z,-1.00
2023-01-21T09:15:08.691Z,-1.00
2023-01-21T09:16:15.429Z,-1.00
2023-01-21T09:17:17.220Z,-0.90
2023-01-21T09:18:18.859Z,-0.90
2023-01-21T09:19:20.329Z,-0.90
2023-01-21T09:20:21.956Z,-0.90
2023-01-21T09:21:23.441Z,-0.80
2023-01-21T09:22:25.183Z,-0.80
2023-01-21T09:23:26.918Z,-0.70
2023-01-21T09:24:29.074Z,-0.70
2023-01-21T09:25:30.654Z,-0.80
2023-01-21T09:26:32.158Z,-0.80
2023-01-21T09:27:33.603Z,-0.80
2023-01-21T09:28:37.828Z,-0.70
2023-01-21T09:29:39.301Z,-0.70
2023-01-21T09:30:40.810Z,-0.70
2023-01-21T09:31:42.466Z,-0.60
2023-01-21T09:32:44.017Z,-0.40
2023-01-21T09:33:47.750Z,-0.40
2023-01-21T09:34:49.292Z,-0.30
2023-01-21T09:35:58.512Z,-0.40
2023-01-21T09:37:01.530Z,-0.40
2023-01-21T09:38:02.914Z,-0.40
2023-01-21T09:39:05.755Z,-0.40
2023-01-21T09:40:11.406Z,-0.40
2023-01-21T09:41:34.407Z,-0.40
2023-01-21T09:42:36.269Z,-0.30
2023-01-21T09:43:45.144Z,-0.30
2023-01-21T09:44:51.182Z,-0.30
2023-01-21T09:45:56.055Z,-0.20
2023-01-21T09:47:06.752Z,-0.20
2023-01-21T09:48:10.915Z,-0.20
2023-01-21T09:49:18.860Z,-0.20
2023-01-21T09:50:23.565Z,-0.10
2023-01-21T09:51:40.919Z,-0.10
2023-01-21T09:52:45.139Z,0.00
2023-01-21T09:53:50.616Z,0.00
2023-01-21T09:54:52.411Z,0.10
2023-01-21T09:55:57.248Z,0.10
2023-01-21T09:57:24.877Z,0.20
2023-01-21T09:58:42.092Z,0.10
2023-01-21T10:00:08.102Z,0.10
2023-01-21T10:01:40.776Z,0.10
2023-01-21T10:02:52.461Z,0.10
2023-01-21T10:04:20.819Z,0.10
2023-01-21T10:05:25.088Z,0.10
2023-01-21T10:06:52.586Z,0.10
2023-01-21T10:08:16.029Z,0.10
2023-01-21T10:09:22.812Z,0.20
2023-01-21T10:10:32.807Z,0.20
2023-01-21T10:11:56.299Z,0.20
2023-01-21T10:13:25.876Z,0.20
2023-01-21T10:14:30.529Z,0.20
2023-01-21T10:15:43.617Z,0.20
2023-01-21T10:16:59.421Z,0.20
2023-01-21T10:18:17.338Z,0.20
2023-01-21T10:19:25.205Z,0.20
2023-01-21T10:20:34.365Z,0.20
2023-01-21T10:21:46.453Z,0.30
2023-01-21T10:23:02.649Z,0.30
2023-01-21T10:24:12.020Z,0.30
2023-01-21T10:25:24.743Z,0.30
2023-01-21T10:26:28.176Z,0.30
2023-01-21T10:27:35.289Z,0.30
2023-01-21T10:28:40.387Z,0.40
2023-01-21T10:29:42.871Z,0.50
2023-01-21T10:30:49.139Z,0.50
2023-01-21T10:31:59.543Z,0.50
2023-01-21T10:33:01.176Z,0.60
2023-01-21T10:34:07.788Z,0.60
2023-01-21T10:35:20.541Z,0.60
2023-01-21T10:36:40.036Z,0.60
2023-01-21T10:38:09.094Z,0.60
2023-01-21T10:39:24.070Z,0.60
2023-01-21T10:40:44.818Z,0.60
2023-01-21T10:41:55.238Z,0.60
2023-01-21T10:43:06.990Z,0.60
2023-01-21T10:44:15.362Z,0.60
2023-01-21T10:45:19.985Z,0.50
2023-01-21T10:46:38.098Z,0.50
2023-01-21T10:48:05.628Z,0.50
2023-01-21T10:49:20.816Z,0.50
2023-01-21T10:50:37.393Z,0.60
2023-01-21T10:51:56.928Z,0.60
2023-01-21T10:53:33.139Z,0.60
2023-01-21T10:54:59.772Z,0.60
2023-01-21T10:56:04.117Z,0.50
2023-01-21T10:57:39.145Z,0.50
2023-01-21T10:58:55.493Z,0.40
2023-01-21T11:00:00.295Z,0.40
2023-01-21T11:01:07.633Z,0.50
2023-01-21T11:02:20.173Z,0.50
2023-01-21T11:03:42.248Z,0.50
2023-01-21T11:04:44.704Z,0.50
2023-01-21T11:05:48.538Z,0.50
2023-01-21T11:07:04.528Z,0.60
2023-01-21T11:08:06.184Z,0.60
2023-01-21T11:09:13.017Z,0.70
2023-01-21T11:10:22.281Z,0.80
2023-01-21T11:11:30.150Z,0.80
2023-01-21T11:12:32.888Z,0.90
2023-01-21T11:13:35.262Z,0.90
2023-01-21T11:14:36.899Z,0.90
2023-01-21T11:15:44.878Z,0.90
2023-01-21T11:16:49.632Z,0.90
2023-01-21T11:17:56.335Z,1.00
2023-01-21T11:18:58.460Z,1.00
2023-01-21T11:20:01.685Z,1.10
2023-01-21T11:21:20.102Z,1.10
2023-01-21T11:22:23.445Z,1.10
2023-01-21T11:23:35.359Z,1.20
2023-01-21T11:24:45.792Z,1.20
2023-01-21T11:25:49.158Z,1.10
2023-01-21T11:26:53.660Z,1.20
2023-01-21T11:27:55.107Z,1.20
2023-01-21T11:29:24.214Z,1.20
2023-01-21T11:30:50.623Z,1.30
2023-01-21T11:32:17.356Z,1.30
2023-01-21T11:33:21.737Z,1.40
2023-01-21T11:34:23.658Z,1.40
2023-01-21T11:35:26.493Z,1.50
2023-01-21T11:36:27.911Z,1.50
2023-01-21T11:37:31.357Z,1.40
2023-01-21T11:38:34.813Z,1.30
2023-01-21T11:39:47.001Z,1.30
2023-01-21T11:41:19.631Z,1.40
2023-01-21T11:42:21.914Z,1.40
2023-01-21T11:43:35.769Z,1.30
2023-01-21T11:44:58.633Z,1.30
2023-01-21T11:46:00.592Z,1.40
2023-01-21T11:47:02.058Z,1.30
2023-01-21T11:48:20.231Z,1.30
2023-01-21T11:49:27.502Z,1.20
2023-01-21T11:50:30.514Z,1.20
2023-01-21T11:51:32.844Z,1.30
2023-01-21T11:52:34.230Z,1.30
2023-01-21T11:53:35.759Z,1.30
2023-01-21T11:54:40.449Z,1.30
2023-01-21T11:55:46.019Z,1.30
2023-01-21T11:56:55.336Z,1.30
2023-01-21T11:57:57.012Z,1.40
2023-01-21T11:58:58.490Z,1.30
2023-01-21T12:00:19.326Z,1.30
2023-01-21T12:01:22.634Z,1.20
2023-01-21T12:02:31.699Z,1.20
2023-01-21T12:03:41.002Z,1.10
2023-01-21T12:05:04.753Z,1.10
2023-01-21T12:06:07.385Z,1.10
2023-01-21T12:07:37.713Z,1.20
2023-01-21T12:08:40.708Z,1.20
2023-01-21T12:09:53.336Z,1.00
2023-01-21T12:10:57.706Z,1.00
2023-01-21T12:12:26.909Z,1.10
2023-01-21T12:13:39.410Z,1.10
2023-01-21T12:14:53.619Z,1.00
2023-01-21T12:16:23.840Z,0.90
2023-01-21T12:17:54.444Z,0.90
2023-01-21T12:19:29.285Z,0.80
2023-01-21T12:20:40.033Z,0.80
2023-01-21T12:21:44.864Z,0.90
2023-01-21T12:23:14.158Z,0.90
2023-01-21T12:24:52.292Z,0.90
2023-01-21T12:26:19.354Z,0.80
2023-01-21T12:27:38.590Z,0.90
2023-01-21T12:28:58.937Z,0.90
2023-01-21T12:30:32.563Z,0.90
2023-01-21T12:31:37.314Z,0.80
2023-01-21T12:32:56.819Z,0.80
2023-01-21T12:34:24.014Z,0.80
2023-01-21T12:35:31.500Z,0.80
2023-01-21T12:36:40.531Z,0.70
2023-01-21T12:37:48.393Z,0.80
2023-01-21T12:39:16.056Z,0.80
2023-01-21T12:40:48.792Z,0.70
2023-01-21T12:42:18.189Z,0.70
2023-01-21T12:43:26.814Z,0.70
2023-01-21T12:44:49.846Z,0.70
2023-01-21T12:46:02.031Z,0.70
2023-01-21T12:47:14.972Z,0.80
2023-01-21T12:48:25.788Z,0.80
2023-01-21T12:49:52.423Z,0.80
2023-01-21T12:51:00.078Z,0.80
2023-01-21T12:52:16.473Z,0.90
2023-01-21T12:53:23.524Z,0.90
2023-01-21T12:54:34.628Z,1.00
2023-01-21T12:56:14.227Z,1.10
2023-01-21T12:57:50.635Z,1.20
2023-01-21T12:58:58.278Z,1.40
2023-01-21T13:00:25.318Z,1.60
2023-01-21T13:01:51.395Z,1.70
2023-01-21T13:03:10.153Z,1.80
2023-01-21T13:04:30.221Z,2.00
2023-01-21T13:05:53.750Z,2.10
2023-01-21T13:07:04.597Z,2.20
2023-01-21T13:08:18.484Z,2.20
2023-01-21T13:09:30.993Z,2.20
2023-01-21T13:10:44.429Z,2.10
2023-01-21T13:12:02.995Z,2.10
2023-01-21T13:13:13.409Z,2.20
2023-01-21T13:14:25.093Z,2.30
2023-01-21T13:15:33.355Z,2.30
2023-01-21T13:16:51.547Z,2.30
2023-01-21T13:17:58.278Z,2.40
2023-01-21T13:19:00.359Z,2.40
2023-01-21T13:20:12.974Z,2.50
2023-01-21T13:21:28.273Z,2.50
2023-01-21T13:22:58.905Z,2.60
2023-01-21T13:24:17.773Z,2.60
2023-01-21T13:25:22.279Z,2.70
2023-01-21T13:26:26.518Z,2.70
2023-01-21T13:27:36.742Z,2.80
2023-01-21T13:28:42.382Z,2.70
2023-01-21T13:29:46.694Z,2.70
2023-01-21T13:31:27.019Z,2.60
2023-01-21T13:32:58.502Z,2.50
2023-01-21T13:34:02.743Z,2.50
2023-01-21T13:35:13.182Z,2.40
2023-01-21T13:36:39.051Z,2.40
2023-01-21T13:37:56.316Z,2.50
2023-01-21T13:39:28.658Z,2.50
2023-01-21T13:40:37.678Z,2.50
2023-01-21T13:41:46.071Z,2.20
2023-01-21T13:43:05.557Z,2.00
2023-01-21T13:44:31.743Z,2.10
2023-01-21T13:45:44.010Z,2.10
2023-01-21T13:47:04.187Z,2.10
2023-01-21T13:48:23.931Z,2.10
2023-01-21T13:49:43.641Z,2.10
2023-01-21T13:51:12.901Z,2.10
2023-01-21T13:52:45.923Z,2.10
2023-01-21T13:54:11.713Z,2.10
2023-01-21T13:55:13.269Z,2.10
2023-01-21T13:56:45.234Z,2.00
2023-01-21T13:57:49.566Z,2.00
2023-01-21T13:59:14.205Z,1.90
2023-01-21T14:00:43.515Z,1.90
2023-01-21T14:01:52.809Z,1.70
2023-01-21T14:03:12.063Z,1.70
2023-01-21T14:04:24.348Z,1.70
2023-01-21T14:05:38.146Z,1.70
2023-01-21T14:07:08.761Z,1.80
2023-01-21T14:08:23.713Z,1.80
2023-01-21T14:09:33.185Z,1.70
2023-01-21T14:10:48.389Z,1.80
2023-01-21T14:12:16.524Z,1.80
2023-01-21T14:13:47.875Z,1.80
2023-01-21T14:15:16.656Z,1.80
2023-01-21T14:16:39.993Z,1.80
2023-01-21T14:18:03.206Z,1.80
2023-01-21T14:19:10.349Z,1.80
2023-01-21T14:20:27.169Z,1.80
2023-01-21T14:22:11.445Z,1.80
2023-01-21T14:23:49.779Z,1.80
2023-01-21T14:25:17.079Z,1.70
2023-01-21T14:26:44.188Z,1.70
2023-01-21T14:27:46.424Z,1.70
2023-01-21T14:29:14.390Z,1.70
2023-01-21T14:30:22.845Z,1.80